createdAt,value
2023-12-26T00:00:42.351Z,0.32
2023-12-26T00:03:27.683Z,0.40
2023-12-26T00:06:13.304Z,0.50
2023-12-26T00:08:58.863Z,0.40
2023-12-26T00:11:45.766Z,0.43
2023-12-26T00:14:31.526Z,0.52
2023-12-26T00:17:16.758Z,0.30
2023-12-26T00:20:05.963Z,0.30
2023-12-26T00:22:51.475Z,0.30
2023-12-26T00:25:37.320Z,0.40
2023-12-26T00:28:22.571Z,0.45
2023-12-26T00:31:08.072Z,0.30
2023-12-26T00:33:54.752Z,0.30
2023-12-26T00:36:40.179Z,0.20
2023-12-26T00:39:25.718Z,0.20
2023-12-26T00:42:13.019Z,0.22
2023-12-26T00:44:59.839Z,0.40
2023-12-26T00:47:46.738Z,0.40
2023-12-26T00:50:32.555Z,0.40
2023-12-26T00:53:18.356Z,0.45
2023-12-26T00:56:04.052Z,0.45
2023-12-26T00:58:49.550Z,0.40
2023-12-26T01:01:35.029Z,0.40
2023-12-26T01:04:22.680Z,0.50
2023-12-26T01:07:08.092Z,0.40
2023-12-26T01:09:53.916Z,0.40
2023-12-26T01:12:39.466Z,0.55
2023-12-26T01:15:25.166Z,0.60
2023-12-26T01:18:11.267Z,0.50
2023-12-26T01:20:56.977Z,0.60
2023-12-26T01:23:42.237Z,0.60
2023-12-26T01:26:27.747Z,0.50
2023-12-26T01:29:13.317Z,0.68
2023-12-26T01:31:58.857Z,0.50
2023-12-26T01:34:44.868Z,0.60
2023-12-26T01:37:30.478Z,0.50
2023-12-26T01:40:16.230Z,0.38
2023-12-26T01:43:01.413Z,0.43
2023-12-26T01:45:46.891Z,0.50
2023-12-26T01:48:32.927Z,0.40
2023-12-26T01:51:20.427Z,0.40
2023-12-26T01:54:05.745Z,0.40
2023-12-26T01:56:51.347Z,0.50
2023-12-26T01:59:38.307Z,0.40
2023-12-26T02:02:24.970Z,0.50
2023-12-26T02:05:13.328Z,0.38
2023-12-26T02:07:58.866Z,0.40
2023-12-26T02:10:44.350Z,0.40
2023-12-26T02:13:30.716Z,0.93
2023-12-26T02:16:22.900Z,0.50
2023-12-26T02:19:08.596Z,0.52
2023-12-26T02:21:54.090Z,0.50
2023-12-26T02:24:43.636Z,0.40
2023-12-26T02:27:30.478Z,0.40
2023-12-26T02:30:16.905Z,0.50
2023-12-26T02:33:05.638Z,0.40
2023-12-26T02:35:52.762Z,0.60
2023-12-26T02:38:38.056Z,0.40
2023-12-26T02:41:23.552Z,0.60
2023-12-26T02:44:09.084Z,0.57
2023-12-26T02:46:54.606Z,0.70
2023-12-26T02:49:40.297Z,0.63
2023-12-26T02:52:25.618Z,0.80
2023-12-26T02:55:12.386Z,0.70
2023-12-26T02:57:57.564Z,0.98
2023-12-26T03:00:43.123Z,0.70
2023-12-26T03:03:28.701Z,0.90
2023-12-26T03:06:15.121Z,0.80
2023-12-26T03:09:00.523Z,0.98
2023-12-26T03:11:45.923Z,0.70
2023-12-26T03:14:31.394Z,0.63
2023-12-26T03:17:17.172Z,0.80
2023-12-26T03:20:03.083Z,0.80
2023-12-26T03:22:49.368Z,0.70
2023-12-26T03:25:35.872Z,0.95
2023-12-26T03:28:21.395Z,0.80
2023-12-26T03:31:08.454Z,0.70
2023-12-26T03:33:56.390Z,0.80
2023-12-26T03:36:46.473Z,0.65
2023-12-26T03:39:33.474Z,0.75
2023-12-26T03:42:19.840Z,0.70
2023-12-26T03:45:05.683Z,0.90
2023-12-26T03:47:53.431Z,0.70
2023-12-26T03:50:40.048Z,0.70
2023-12-26T03:53:25.534Z,0.85
2023-12-26T03:56:11.399Z,0.47
2023-12-26T03:58:56.882Z,0.80
2023-12-26T04:01:42.284Z,0.70
2023-12-26T04:04:28.017Z,0.70
2023-12-26T04:07:13.866Z,0.77
2023-12-26T04:09:59.537Z,0.70
2023-12-26T04:12:44.737Z,0.90
2023-12-26T04:15:30.647Z,0.75
2023-12-26T04:18:16.892Z,0.80
2023-12-26T04:21:02.562Z,0.80
2023-12-26T04:23:48.076Z,0.82
2023-12-26T04:26:37.381Z,0.90
2023-12-26T04:29:23.359Z,1.00
2023-12-26T04:32:11.211Z,0.90
2023-12-26T04:34:57.528Z,0.90
2023-12-26T04:37:43.628Z,0.90
2023-12-26T04:40:29.681Z,1.10
2023-12-26T04:43:18.493Z,0.75
2023-12-26T04:46:04.106Z,1.10
2023-12-26T04:48:49.730Z,1.65
2023-12-26T04:51:35.661Z,1.45
2023-12-26T04:54:21.144Z,0.95
2023-12-26T04:57:06.707Z,0.85
2023-12-26T04:59:52.333Z,1.50
2023-12-26T05:02:37.720Z,1.35
2023-12-26T05:05:23.293Z,1.25
2023-12-26T05:08:08.482Z,1.08
2023-12-26T05:10:54.633Z,0.80
2023-12-26T05:13:41.665Z,0.90
2023-12-26T05:16:28.513Z,1.20
2023-12-26T05:19:14.233Z,0.95
2023-12-26T05:22:00.310Z,0.70
2023-12-26T05:24:51.562Z,0.82
2023-12-26T05:27:40.653Z,0.90
2023-12-26T05:30:26.240Z,1.10
2023-12-26T05:33:13.388Z,0.93
2023-12-26T05:36:00.706Z,1.30
2023-12-26T05:38:46.104Z,1.02
2023-12-26T05:41:31.740Z,1.42
2023-12-26T05:44:17.214Z,1.00
2023-12-26T05:47:04.670Z,1.65
2023-12-26T05:49:50.808Z,0.90
2023-12-26T05:52:36.451Z,1.20
2023-12-26T05:55:22.190Z,1.15
2023-12-26T05:58:07.967Z,1.30
2023-12-26T06:00:54.327Z,1.33
2023-12-26T06:03:39.754Z,1.23
2023-12-26T06:06:26.660Z,1.25
2023-12-26T06:09:12.015Z,1.63
2023-12-26T06:11:57.732Z,1.25
2023-12-26T06:14:43.582Z,1.00
2023-12-26T06:17:30.527Z,1.17
2023-12-26T06:20:18.094Z,1.20
2023-12-26T06:23:04.150Z,1.13
2023-12-26T06:25:49.287Z,1.20
2023-12-26T06:28:35.627Z,1.02
2023-12-26T06:31:21.137Z,1.17
2023-12-26T06:34:06.871Z,1.00
2023-12-26T06:36:53.208Z,1.05
2023-12-26T06:39:40.329Z,0.95
2023-12-26T06:42:25.774Z,1.55
2023-12-26T06:45:11.337Z,1.10
2023-12-26T06:47:57.000Z,1.20
2023-12-26T06:50:42.318Z,1.00
2023-12-26T06:53:27.720Z,1.48
2023-12-26T06:56:13.256Z,1.48
2023-12-26T06:58:59.642Z,1.08
2023-12-26T07:01:48.369Z,1.05
2023-12-26T07:04:33.582Z,1.40
2023-12-26T07:07:19.283Z,1.30
2023-12-26T07:10:05.129Z,1.13
2023-12-26T07:12:51.474Z,1.20
2023-12-26T07:15:37.036Z,1.10
2023-12-26T07:18:23.051Z,1.20
2023-12-26T07:21:09.274Z,1.27
2023-12-26T07:23:55.115Z,1.20
2023-12-26T07:26:40.517Z,1.67
2023-12-26T07:29:28.285Z,1.30
2023-12-26T07:32:13.997Z,1.40
2023-12-26T07:34:59.541Z,1.30
2023-12-26T07:37:45.014Z,1.30
2023-12-26T07:40:31.785Z,1.20
2023-12-26T07:43:18.021Z,1.35
2023-12-26T07:46:03.955Z,1.05
2023-12-26T07:48:49.419Z,1.55
2023-12-26T07:51:34.757Z,1.20
2023-12-26T07:54:20.647Z,1.60
2023-12-26T07:57:06.723Z,1.60
2023-12-26T07:59:52.157Z,1.65
2023-12-26T08:02:37.644Z,1.40
2023-12-26T08:05:23.137Z,1.70
2023-12-26T08:08:08.528Z,2.05
2023-12-26T08:10:53.887Z,1.55
2023-12-26T08:13:39.564Z,1.50
2023-12-26T08:16:25.196Z,1.35
2023-12-26T08:19:11.654Z,1.40
2023-12-26T08:21:57.303Z,1.38
2023-12-26T08:24:43.043Z,1.42
2023-12-26T08:27:28.457Z,1.20
2023-12-26T08:30:14.140Z,1.27
2023-12-26T08:32:59.706Z,1.60
2023-12-26T08:35:45.672Z,1.35
2023-12-26T08:38:30.914Z,1.25
2023-12-26T08:41:16.495Z,1.50
2023-12-26T08:44:01.960Z,1.50
2023-12-26T08:46:47.359Z,1.60
2023-12-26T08:49:33.092Z,1.17
2023-12-26T08:52:19.309Z,1.10
2023-12-26T08:55:05.279Z,1.33
2023-12-26T08:57:50.425Z,1.50
2023-12-26T09:00:36.010Z,0.98
2023-12-26T09:03:21.619Z,0.90
2023-12-26T09:06:11.196Z,1.25
2023-12-26T09:08:56.445Z,1.15
2023-12-26T09:11:42.145Z,1.17
2023-12-26T09:14:27.572Z,1.25
2023-12-26T09:17:14.150Z,1.35
2023-12-26T09:19:59.565Z,1.10
2023-12-26T09:22:45.251Z,1.38
2023-12-26T09:25:31.165Z,1.30
2023-12-26T09:28:17.913Z,1.40
2023-12-26T09:31:03.190Z,1.95
2023-12-26T09:33:49.443Z,1.75
2023-12-26T09:36:34.762Z,1.50
2023-12-26T09:39:20.700Z,1.35
2023-12-26T09:42:09.108Z,0.90
2023-12-26T09:44:54.889Z,1.05
2023-12-26T09:47:44.382Z,1.70
2023-12-26T09:50:29.784Z,1.13
2023-12-26T09:53:19.987Z,1.10
2023-12-26T09:56:06.255Z,2.70
2023-12-26T09:58:51.823Z,3.50
2023-12-26T10:01:37.172Z,1.55
2023-12-26T10:04:22.754Z,1.65
2023-12-26T10:07:10.372Z,1.40
2023-12-26T10:09:56.324Z,1.55
2023-12-26T10:12:41.854Z,1.80
2023-12-26T10:15:28.351Z,1.75
2023-12-26T10:18:14.044Z,1.80
2023-12-26T10:20:59.237Z,2.75
2023-12-26T10:23:46.437Z,1.65
2023-12-26T10:26:31.697Z,1.23
2023-12-26T10:29:17.591Z,1.13
2023-12-26T10:32:03.263Z,1.27
2023-12-26T10:34:48.587Z,1.60
2023-12-26T10:37:34.872Z,1.67
2023-12-26T10:40:20.791Z,1.40
2023-12-26T10:43:06.661Z,1.52
2023-12-26T10:45:54.832Z,1.38
2023-12-26T10:48:44.528Z,1.60
2023-12-26T10:51:31.517Z,3.90
2023-12-26T10:54:22.001Z,1.95
2023-12-26T10:57:09.510Z,1.40
2023-12-26T10:59:54.813Z,2.05
2023-12-26T11:02:41.417Z,2.03
2023-12-26T11:05:27.100Z,1.58
2023-12-26T11:08:12.708Z,1.92
2023-12-26T11:10:58.401Z,1.15
2023-12-26T11:13:44.098Z,1.67
2023-12-26T11:16:29.986Z,1.50
2023-12-26T11:19:15.379Z,2.03
2023-12-26T11:22:00.781Z,1.75
2023-12-26T11:24:46.636Z,1.90
2023-12-26T11:27:32.241Z,1.77
2023-12-26T11:30:18.527Z,1.70
2023-12-26T11:33:04.793Z,1.80
2023-12-26T11:35:50.454Z,1.40
2023-12-26T11:38:36.770Z,1.88
2023-12-26T11:41:22.268Z,1.48
2023-12-26T11:44:07.679Z,1.42
2023-12-26T11:46:53.137Z,2.10
2023-12-26T11:49:38.718Z,1.50
2023-12-26T11:52:24.232Z,1.60
2023-12-26T11:55:09.645Z,1.95
2023-12-26T11:57:55.327Z,1.90
2023-12-26T12:00:40.986Z,1.80
2023-12-26T12:03:26.359Z,1.30
2023-12-26T12:06:17.191Z,1.67
2023-12-26T12:09:06.459Z,1.55
2023-12-26T12:11:51.907Z,1.42
2023-12-26T12:14:37.343Z,1.77
2023-12-26T12:17:23.088Z,1.42
2023-12-26T12:20:08.326Z,1.63
2023-12-26T12:22:54.229Z,1.90
2023-12-26T12:25:40.265Z,1.90
2023-12-26T12:28:25.758Z,1.58
2023-12-26T12:31:14.883Z,1.50
2023-12-26T12:34:13.071Z,1.40
2023-12-26T12:36:59.382Z,1.45
2023-12-26T12:39:45.031Z,1.48
2023-12-26T12:42:31.382Z,1.70
2023-12-26T12:45:16.680Z,1.30
2023-12-26T12:48:03.349Z,1.63
2023-12-26T12:50:50.195Z,1.63
2023-12-26T12:53:40.949Z,1.52
2023-12-26T12:56:26.078Z,1.63
2023-12-26T12:59:11.531Z,1.50
2023-12-26T13:01:57.071Z,1.65
2023-12-26T13:04:43.952Z,1.98
2023-12-26T13:07:29.628Z,1.85
2023-12-26T13:10:15.151Z,1.60
2023-12-26T13:13:00.846Z,1.40
2023-12-26T13:15:46.556Z,1.75
2023-12-26T13:18:32.202Z,2.05
2023-12-26T13:21:17.614Z,1.73
2023-12-26T13:24:02.961Z,1.40
2023-12-26T13:26:50.137Z,1.92
2023-12-26T13:29:35.583Z,1.42
2023-12-26T13:32:21.374Z,1.90
2023-12-26T13:35:06.795Z,1.80
2023-12-26T13:37:52.279Z,1.55
2023-12-26T13:40:37.724Z,1.80
2023-12-26T13:43:34.776Z,2.13
2023-12-26T13:46:21.967Z,1.70
2023-12-26T13:49:07.403Z,1.50
2023-12-26T13:51:52.881Z,1.63
2023-12-26T13:54:38.343Z,1.58
2023-12-26T13:57:23.852Z,1.88
2023-12-26T14:00:09.279Z,1.63
2023-12-26T14:03:01.273Z,1.73
2023-12-26T14:05:46.903Z,2.03
2023-12-26T14:08:32.405Z,1.92
2023-12-26T14:11:21.373Z,1.40
2023-12-26T14:14:06.842Z,1.80
2023-12-26T14:16:52.422Z,1.23
2023-12-26T14:19:37.971Z,1.38
2023-12-26T14:22:24.960Z,1.63
2023-12-26T14:25:10.337Z,1.48
2023-12-26T14:27:55.793Z,1.73
2023-12-26T14:30:41.592Z,1.83
2023-12-26T14:33:27.047Z,1.90
2023-12-26T14:36:12.510Z,1.38
2023-12-26T14:38:58.084Z,1.20
2023-12-26T14:41:43.597Z,1.83
2023-12-26T14:44:29.123Z,1.55
2023-12-26T14:47:14.558Z,1.73
2023-12-26T14:50:00.177Z,2.00
2023-12-26T14:52:45.521Z,1.00
2023-12-26T14:55:31.097Z,1.27
2023-12-26T14:58:16.842Z,1.45
2023-12-26T15:01:03.657Z,1.45
2023-12-26T15:03:50.515Z,1.50
2023-12-26T15:06:36.001Z,2.33
2023-12-26T15:09:21.502Z,1.58
2023-12-26T15:12:07.352Z,1.73
2023-12-26T15:14:53.095Z,1.75
2023-12-26T15:17:39.101Z,1.58
2023-12-26T15:20:24.554Z,1.48
2023-12-26T15:23:10.163Z,2.05
2023-12-26T15:25:55.693Z,1.50
2023-12-26T15:28:44.939Z,2.10
2023-12-26T15:31:30.352Z,1.85
2023-12-26T15:34:16.088Z,2.00
2023-12-26T15:37:01.414Z,2.03
2023-12-26T15:39:46.943Z,1.63
2023-12-26T15:42:32.675Z,1.85
2023-12-26T15:45:20.587Z,2.40
2023-12-26T15:48:06.460Z,1.63
2023-12-26T15:50:52.046Z,2.58
2023-12-26T15:53:37.752Z,1.95
2023-12-26T15:56:30.205Z,1.40
2023-12-26T15:59:15.884Z,1.83
2023-12-26T16:02:01.581Z,1.40
2023-12-26T16:04:47.165Z,1.20
2023-12-26T16:07:33.267Z,1.60
2023-12-26T16:10:21.407Z,1.80
2023-12-26T16:13:07.274Z,1.50
2023-12-26T16:15:52.745Z,1.40
2023-12-26T16:18:40.207Z,1.42
2023-12-26T16:21:26.000Z,1.55
2023-12-26T16:24:13.326Z,1.13
2023-12-26T16:26:58.856Z,1.35
2023-12-26T16:29:44.407Z,1.33
2023-12-26T16:32:29.850Z,1.45
2023-12-26T16:35:15.905Z,1.20
2023-12-26T16:38:02.081Z,1.00
2023-12-26T16:40:47.284Z,1.70
2023-12-26T16:43:32.908Z,1.20
2023-12-26T16:46:18.461Z,1.58
2023-12-26T16:49:04.170Z,1.60
2023-12-26T16:51:49.754Z,1.50
2023-12-26T16:54:41.432Z,1.35
2023-12-26T16:57:35.982Z,1.75
2023-12-26T17:00:21.932Z,1.88
2023-12-26T17:03:08.440Z,1.50
2023-12-26T17:05:53.914Z,1.50
2023-12-26T17:08:39.558Z,1.50
2023-12-26T17:11:25.149Z,1.30
2023-12-26T17:14:10.591Z,1.60
2023-12-26T17:16:55.939Z,1.40
2023-12-26T17:19:41.787Z,1.30
2023-12-26T17:22:27.280Z,1.70
2023-12-26T17:25:13.701Z,2.13
2023-12-26T17:27:59.736Z,1.55
2023-12-26T17:30:45.432Z,1.70
2023-12-26T17:33:32.005Z,1.42
2023-12-26T17:36:17.992Z,1.42
2023-12-26T17:39:05.194Z,1.40
2023-12-26T17:41:50.850Z,1.45
2023-12-26T17:44:36.200Z,1.60
2023-12-26T17:47:21.796Z,1.35
2023-12-26T17:50:07.599Z,1.30
2023-12-26T17:52:53.086Z,1.30
2023-12-26T17:55:38.649Z,1.88
2023-12-26T17:58:29.423Z,1.65
2023-12-26T18:01:15.710Z,1.52
2023-12-26T18:04:01.181Z,1.40
2023-12-26T18:06:46.588Z,1.50
2023-12-26T18:09:32.407Z,2.00
2023-12-26T18:12:17.999Z,2.05
2023-12-26T18:15:04.365Z,1.40
2023-12-26T18:17:50.095Z,1.77
2023-12-26T18:20:35.666Z,1.63
2023-12-26T18:23:21.994Z,1.67
2023-12-26T18:26:07.780Z,2.03
2023-12-26T18:28:53.183Z,1.80
2023-12-26T18:31:39.254Z,1.65
2023-12-26T18:34:28.011Z,1.63
2023-12-26T18:37:13.892Z,1.83
2023-12-26T18:39:59.321Z,1.60
2023-12-26T18:42:44.893Z,1.20
2023-12-26T18:45:31.890Z,1.20
2023-12-26T18:48:19.483Z,1.40
2023-12-26T18:51:05.369Z,0.90
2023-12-26T18:53:51.368Z,0.93
2023-12-26T18:56:37.118Z,0.90
2023-12-26T18:59:22.553Z,0.80
2023-12-26T19:02:08.113Z,0.70
2023-12-26T19:04:53.739Z,0.95
2023-12-26T19:07:39.113Z,0.80
2023-12-26T19:10:24.879Z,0.90
2023-12-26T19:13:10.676Z,1.30
2023-12-26T19:15:56.703Z,1.70
2023-12-26T19:18:42.389Z,1.27
2023-12-26T19:21:27.689Z,1.40
2023-12-26T19:24:13.327Z,1.10
2023-12-26T19:26:58.777Z,1.30
2023-12-26T19:29:44.377Z,1.50
2023-12-26T19:32:29.909Z,1.27
2023-12-26T19:35:15.425Z,1.02
2023-12-26T19:38:01.207Z,0.88
2023-12-26T19:40:48.068Z,1.25
2023-12-26T19:43:33.715Z,1.33
2023-12-26T19:46:19.357Z,1.40
2023-12-26T19:49:04.895Z,1.42
2023-12-26T19:51:50.266Z,1.20
2023-12-26T19:54:35.847Z,1.42
2023-12-26T19:57:23.865Z,1.27
2023-12-26T20:00:11.409Z,1.30
2023-12-26T20:02:59.065Z,1.20
2023-12-26T20:05:47.453Z,1.27
2023-12-26T20:08:32.991Z,1.92
2023-12-26T20:11:18.475Z,1.05
2023-12-26T20:14:03.894Z,1.30
2023-12-26T20:16:50.741Z,1.27
2023-12-26T20:19:38.403Z,1.23
2023-12-26T20:22:24.042Z,1.58
2023-12-26T20:25:09.545Z,1.70
2023-12-26T20:27:55.173Z,1.52
2023-12-26T20:30:40.665Z,1.50
2023-12-26T20:33:26.889Z,1.08
2023-12-26T20:36:12.350Z,1.70
2023-12-26T20:38:57.925Z,1.60
2023-12-26T20:41:44.178Z,1.45
2023-12-26T20:44:29.503Z,1.48
2023-12-26T20:47:15.200Z,1.85
2023-12-26T20:50:00.764Z,2.03
2023-12-26T20:52:46.207Z,3.95
2023-12-26T20:55:32.042Z,1.50
2023-12-26T20:58:18.152Z,1.48
2023-12-26T21:01:03.783Z,1.80
2023-12-26T21:03:49.740Z,1.98
2023-12-26T21:06:35.115Z,3.67
2023-12-26T21:09:20.615Z,1.77
2023-12-26T21:12:06.307Z,1.67
2023-12-26T21:14:54.718Z,1.48
2023-12-26T21:17:41.608Z,1.80
2023-12-26T21:20:26.909Z,1.33
2023-12-26T21:23:12.492Z,1.58
2023-12-26T21:25:58.115Z,1.50
2023-12-26T21:28:44.418Z,1.60
2023-12-26T21:31:29.994Z,1.52
2023-12-26T21:34:15.656Z,1.60
2023-12-26T21:37:01.338Z,1.55
2023-12-26T21:39:46.777Z,1.98
2023-12-26T21:42:32.382Z,1.70
2023-12-26T21:45:18.017Z,1.63
2023-12-26T21:48:03.996Z,1.55
2023-12-26T21:50:49.833Z,1.60
2023-12-26T21:53:35.419Z,2.33
2023-12-26T21:56:21.068Z,2.20
2023-12-26T21:59:07.190Z,1.70
2023-12-26T22:01:55.253Z,2.00
2023-12-26T22:04:40.799Z,1.75
2023-12-26T22:07:26.528Z,1.88
2023-12-26T22:10:15.367Z,1.73
2023-12-26T22:13:00.739Z,2.00
2023-12-26T22:15:48.345Z,2.30
2023-12-26T22:18:34.053Z,1.88
2023-12-26T22:21:19.850Z,2.25
2023-12-26T22:24:05.512Z,1.67
2023-12-26T22:26:50.991Z,1.80
2023-12-26T22:29:36.386Z,2.10
2023-12-26T22:32:21.775Z,1.73
2023-12-26T22:35:07.570Z,1.60
2023-12-26T22:37:54.221Z,1.65
2023-12-26T22:40:39.764Z,2.10
2023-12-26T22:43:25.337Z,2.00
2023-12-26T22:46:22.707Z,1.70
2023-12-26T22:49:08.063Z,2.00
2023-12-26T22:51:53.361Z,2.55
2023-12-26T22:54:41.404Z,1.98
2023-12-26T22:57:28.088Z,2.08
2023-12-26T23:00:20.273Z,1.90
2023-12-26T23:03:06.005Z,2.00
2023-12-26T23:05:51.538Z,2.95
2023-12-26T23:08:37.100Z,2.05
2023-12-26T23:11:23.886Z,2.20
2023-12-26T23:14:11.019Z,2.00
2023-12-26T23:16:56.543Z,2.60
2023-12-26T23:19:46.434Z,2.75
2023-12-26T23:22:32.193Z,2.55
2023-12-26T23:25:17.716Z,2.42
2023-12-26T23:28:03.478Z,2.38
2023-12-26T23:30:49.302Z,2.30
2023-12-26T23:33:34.623Z,2.42
2023-12-26T23:36:20.073Z,2.22
2023-12-26T23:39:05.997Z,1.73
2023-12-26T23:41:51.736Z,2.13
2023-12-26T23:44:37.178Z,2.78
2023-12-26T23:47:22.785Z,2.50
2023-12-26T23:50:08.496Z,2.42
2023-12-26T23:52:54.007Z,2.83
2023-12-26T23:55:40.216Z,2.22
2023-12-26T23:58:25.455Z,2.13
